Terminal Aerodrome Forecast
Issued by NWS

Current Version | Previous Version | Graphics & Text | Print | Product List | Glossary On
Versions: 1 2 3 4 5 6 7 8 9 10 11 12 13 14 15 16 17
000
FTUS41 KPBZ 020319 AAA
TAFHLG
TAF AMD
KHLG 020319Z 0203/0224 25012KT P6SM OVC040
     FM020700 25010KT P6SM OVC025
     FM021200 25008KT P6SM OVC018
     FM021700 26010KT P6SM OVC025=

USA.gov is the U.S. government's official web portal to all federal, state and local government web resources and services.